KVCV/VCV METAR and TAF weather

Enter ICAO airport designator
Station Type Date Time Source
KVCV METAR 2022/12/10 01:15 UTC NOAA

KVCV 100115Z AUTO 25005KT 8SM CLR 11/M06 A3009 RMK AO2


Station Type Date Time Source
KVCV Decoded METAR 2022/12/10 01:15 UTC NOAA

Victorville, Southern California Logistics Airport, CA, United States (KVCV) 34-35-50N 117-22-58W
Dec 09, 2022 - 08:15 PM EST / 2022.12.10 0115 UTC
Wind: from the WSW (250 degrees) at 6 MPH (5 KT):0
Visibility: 8 mile(s):0
Sky conditions: clear
Temperature: 51 F (11 C)
Dew Point: 21 F (-6 C)
Relative Humidity: 29%
Pressure (altimeter): 30.09 in. Hg (1018 hPa)
ob: KVCV 100115Z AUTO 25005KT 8SM CLR 11/M06 A3009 RMK AO2
cycle: 1

Station Type Date Time Source
KVCV TAF UTC NOAA

Error!

Example: see airport list